sensor_id;sensor_type;location;lat;lon;timestamp;temperature;humidity
47921;DHT22;33686;48.770;9.186;2023-06-22T04:17:35;20.10;99.90
47921;DHT22;33686;48.770;9.186;2023-06-22T04:20:01;20.20;99.90
47921;DHT22;33686;48.770;9.186;2023-06-22T04:22:26;20.20;99.90
47921;DHT22;33686;48.770;9.186;2023-06-22T04:24:52;20.40;99.90
47921;DHT22;33686;48.770;9.186;2023-06-22T04:27:18;20.70;99.90
47921;DHT22;33686;48.770;9.186;2023-06-22T04:29:45;20.90;99.90
47921;DHT22;33686;48.770;9.186;2023-06-22T04:32:14;21.30;99.90
47921;DHT22;33686;48.770;9.186;2023-06-22T04:34:40;21.90;99.90
47921;DHT22;33686;48.770;9.186;2023-06-22T04:37:06;22.10;99.90
47921;DHT22;33686;48.770;9.186;2023-06-22T04:39:31;22.40;99.90
47921;DHT22;33686;48.770;9.186;2023-06-22T04:41:57;22.40;99.90
47921;DHT22;33686;48.770;9.186;2023-06-22T04:44:25;22.80;99.90
47921;DHT22;33686;48.770;9.186;2023-06-22T04:46:52;22.70;99.90
47921;DHT22;33686;48.770;9.186;2023-06-22T04:49:25;22.60;99.90
47921;DHT22;33686;48.770;9.186;2023-06-22T04:52:01;23.00;99.90
47921;DHT22;33686;48.770;9.186;2023-06-22T04:54:28;23.30;99.90
47921;DHT22;33686;48.770;9.186;2023-06-22T04:56:53;23.80;99.90
47921;DHT22;33686;48.770;9.186;2023-06-22T04:59:22;24.10;99.90
47921;DHT22;33686;48.770;9.186;2023-06-22T05:01:47;24.20;99.90
47921;DHT22;33686;48.770;9.186;2023-06-22T05:04:13;24.40;99.90
47921;DHT22;33686;48.770;9.186;2023-06-22T05:06:39;24.50;99.90
47921;DHT22;33686;48.770;9.186;2023-06-22T05:09:05;24.50;99.90
47921;DHT22;33686;48.770;9.186;2023-06-22T05:11:31;24.90;99.90
47921;DHT22;33686;48.770;9.186;2023-06-22T05:13:56;25.30;99.90
47921;DHT22;33686;48.770;9.186;2023-06-22T05:16:22;25.50;99.90
47921;DHT22;33686;48.770;9.186;2023-06-22T05:18:50;25.30;99.90
47921;DHT22;33686;48.770;9.186;2023-06-22T05:21:15;25.90;99.90
47921;DHT22;33686;48.770;9.186;2023-06-22T05:23:41;25.90;99.90
47921;DHT22;33686;48.770;9.186;2023-06-22T05:26:06;25.90;99.90
47921;DHT22;33686;48.770;9.186;2023-06-22T05:28:34;26.00;99.90
47921;DHT22;33686;48.770;9.186;2023-06-22T05:31:00;26.00;99.90
47921;DHT22;33686;48.770;9.186;2023-06-22T05:33:25;26.60;99.90
47921;DHT22;33686;48.770;9.186;2023-06-22T05:35:51;26.80;99.90
47921;DHT22;33686;48.770;9.186;2023-06-22T05:38:16;27.20;99.90
47921;DHT22;33686;48.770;9.186;2023-06-22T05:40:42;27.90;99.90
47921;DHT22;33686;48.770;9.186;2023-06-22T05:43:07;27.00;99.90
47921;DHT22;33686;48.770;9.186;2023-06-22T05:45:33;26.80;99.90
47921;DHT22;33686;48.770;9.186;2023-06-22T05:47:59;26.80;99.90
47921;DHT22;33686;48.770;9.186;2023-06-22T05:50:24;27.40;99.90
47921;DHT22;33686;48.770;9.186;2023-06-22T05:52:50;26.80;99.90
47921;DHT22;33686;48.770;9.186;2023-06-22T05:55:15;27.50;99.90
47921;DHT22;33686;48.770;9.186;2023-06-22T05:57:41;27.50;99.90
47921;DHT22;33686;48.770;9.186;2023-06-22T06:00:06;28.10;99.90
47921;DHT22;33686;48.770;9.186;2023-06-22T06:02:36;28.10;99.90
47921;DHT22;33686;48.770;9.186;2023-06-22T06:05:01;27.40;99.90
47921;DHT22;33686;48.770;9.186;2023-06-22T06:07:28;26.80;99.90
47921;DHT22;33686;48.770;9.186;2023-06-22T06:09:53;26.40;99.90
47921;DHT22;33686;48.770;9.186;2023-06-22T06:12:19;26.20;99.90
47921;DHT22;33686;48.770;9.186;2023-06-22T06:14:44;26.00;99.90
47921;DHT22;33686;48.770;9.186;2023-06-22T06:17:10;25.80;99.90
47921;DHT22;33686;48.770;9.186;2023-06-22T06:19:35;25.80;99.90
47921;DHT22;33686;48.770;9.186;2023-06-22T06:22:01;26.60;99.90
47921;DHT22;33686;48.770;9.186;2023-06-22T06:24:26;26.50;99.90
47921;DHT22;33686;48.770;9.186;2023-06-22T06:26:52;27.50;99.90
47921;DHT22;33686;48.770;9.186;2023-06-22T06:29:17;27.10;99.90
47921;DHT22;33686;48.770;9.186;2023-06-22T06:31:43;28.00;99.90
47921;DHT22;33686;48.770;9.186;2023-06-22T06:34:09;29.00;99.90
47921;DHT22;33686;48.770;9.186;2023-06-22T06:36:34;28.80;99.90
47921;DHT22;33686;48.770;9.186;2023-06-22T06:39:00;29.70;99.90
47921;DHT22;33686;48.770;9.186;2023-06-22T06:41:25;29.10;99.90
47921;DHT22;33686;48.770;9.186;2023-06-22T06:43:51;29.30;99.90
47921;DHT22;33686;48.770;9.186;2023-06-22T06:46:17;29.60;99.90
47921;DHT22;33686;48.770;9.186;2023-06-22T06:48:44;30.20;99.90
47921;DHT22;33686;48.770;9.186;2023-06-22T06:51:10;30.10;99.90
47921;DHT22;33686;48.770;9.186;2023-06-22T06:53:36;29.10;99.90
47921;DHT22;33686;48.770;9.186;2023-06-22T06:56:01;29.20;99.90
47921;DHT22;33686;48.770;9.186;2023-06-22T06:58:27;30.30;99.90
47921;DHT22;33686;48.770;9.186;2023-06-22T07:00:53;30.60;99.90
47921;DHT22;33686;48.770;9.186;2023-06-22T07:03:19;30.20;99.90
47921;DHT22;33686;48.770;9.186;2023-06-22T07:05:45;29.80;99.90
47921;DHT22;33686;48.770;9.186;2023-06-22T07:08:10;30.00;99.90
47921;DHT22;33686;48.770;9.186;2023-06-22T07:10:36;29.70;99.90
47921;DHT22;33686;48.770;9.186;2023-06-22T07:13:01;30.60;99.90
47921;DHT22;33686;48.770;9.186;2023-06-22T07:15:27;30.30;99.90
47921;DHT22;33686;48.770;9.186;2023-06-22T07:17:52;29.90;99.90
47921;DHT22;33686;48.770;9.186;2023-06-22T07:20:18;30.20;99.90
47921;DHT22;33686;48.770;9.186;2023-06-22T07:22:45;29.90;99.90
47921;DHT22;33686;48.770;9.186;2023-06-22T07:25:10;29.70;99.90
47921;DHT22;33686;48.770;9.186;2023-06-22T07:27:44;30.90;99.90
47921;DHT22;33686;48.770;9.186;2023-06-22T07:30:11;31.10;99.90
47921;DHT22;33686;48.770;9.186;2023-06-22T07:32:36;31.10;99.90
47921;DHT22;33686;48.770;9.186;2023-06-22T07:35:02;31.20;99.90
47921;DHT22;33686;48.770;9.186;2023-06-22T07:37:28;31.70;99.90
47921;DHT22;33686;48.770;9.186;2023-06-22T07:39:57;31.40;99.90
47921;DHT22;33686;48.770;9.186;2023-06-22T07:42:26;32.10;99.90
47921;DHT22;33686;48.770;9.186;2023-06-22T07:44:51;31.90;99.90
47921;DHT22;33686;48.770;9.186;2023-06-22T07:47:17;31.60;99.90
47921;DHT22;33686;48.770;9.186;2023-06-22T07:49:50;31.20;99.90
47921;DHT22;33686;48.770;9.186;2023-06-22T07:52:15;31.30;99.90
47921;DHT22;33686;48.770;9.186;2023-06-22T07:54:41;31.60;99.90
47921;DHT22;33686;48.770;9.186;2023-06-22T07:57:06;32.10;99.90
47921;DHT22;33686;48.770;9.186;2023-06-22T07:59:32;32.80;99.90
47921;DHT22;33686;48.770;9.186;2023-06-22T08:01:57;33.10;99.90
47921;DHT22;33686;48.770;9.186;2023-06-22T08:04:23;33.50;99.40
47921;DHT22;33686;48.770;9.186;2023-06-22T08:06:48;32.90;99.80
47921;DHT22;33686;48.770;9.186;2023-06-22T08:09:14;33.30;99.90
47921;DHT22;33686;48.770;9.186;2023-06-22T08:11:40;33.40;99.00
47921;DHT22;33686;48.770;9.186;2023-06-22T08:14:05;32.50;99.90
47921;DHT22;33686;48.770;9.186;2023-06-22T08:16:31;32.10;99.90
47921;DHT22;33686;48.770;9.186;2023-06-22T08:18:56;33.00;99.70
47921;DHT22;33686;48.770;9.186;2023-06-22T08:21:22;33.00;99.70
47921;DHT22;33686;48.770;9.186;2023-06-22T08:23:48;31.80;99.90
47921;DHT22;33686;48.770;9.186;2023-06-22T08:26:14;30.70;99.90
47921;DHT22;33686;48.770;9.186;2023-06-22T08:28:39;30.30;99.90
47921;DHT22;33686;48.770;9.186;2023-06-22T08:31:05;30.30;99.90
47921;DHT22;33686;48.770;9.186;2023-06-22T08:33:30;30.50;99.90
47921;DHT22;33686;48.770;9.186;2023-06-22T08:35:57;30.10;99.90
47921;DHT22;33686;48.770;9.186;2023-06-22T08:38:23;30.60;99.90
47921;DHT22;33686;48.770;9.186;2023-06-22T08:40:48;31.40;99.90
47921;DHT22;33686;48.770;9.186;2023-06-22T08:43:14;31.70;99.90
47921;DHT22;33686;48.770;9.186;2023-06-22T08:45:40;31.90;99.90
47921;DHT22;33686;48.770;9.186;2023-06-22T08:48:05;32.20;99.70
47921;DHT22;33686;48.770;9.186;2023-06-22T08:50:31;31.70;99.90
47921;DHT22;33686;48.770;9.186;2023-06-22T08:52:56;31.30;99.90
47921;DHT22;33686;48.770;9.186;2023-06-22T08:55:22;31.10;99.90
47921;DHT22;33686;48.770;9.186;2023-06-22T08:57:47;31.50;99.90
47921;DHT22;33686;48.770;9.186;2023-06-22T09:00:13;32.40;99.50
47921;DHT22;33686;48.770;9.186;2023-06-22T09:02:43;32.80;99.30
47921;DHT22;33686;48.770;9.186;2023-06-22T09:05:08;33.30;98.60
47921;DHT22;33686;48.770;9.186;2023-06-22T09:07:34;33.30;98.30
47921;DHT22;33686;48.770;9.186;2023-06-22T09:10:00;32.70;98.80
47921;DHT22;33686;48.770;9.186;2023-06-22T09:12:25;32.50;99.00
47921;DHT22;33686;48.770;9.186;2023-06-22T09:14:52;32.10;99.50
47921;DHT22;33686;48.770;9.186;2023-06-22T09:17:18;31.90;99.90
47921;DHT22;33686;48.770;9.186;2023-06-22T09:19:44;32.40;99.30
47921;DHT22;33686;48.770;9.186;2023-06-22T09:22:09;32.20;99.40
47921;DHT22;33686;48.770;9.186;2023-06-22T09:24:35;32.70;99.20
47921;DHT22;33686;48.770;9.186;2023-06-22T09:27:01;34.00;98.40
47921;DHT22;33686;48.770;9.186;2023-06-22T09:29:26;34.70;97.40
47921;DHT22;33686;48.770;9.186;2023-06-22T09:31:52;35.20;96.60
47921;DHT22;33686;48.770;9.186;2023-06-22T09:34:19;35.80;95.40
47921;DHT22;33686;48.770;9.186;2023-06-22T09:36:46;36.00;95.10
47921;DHT22;33686;48.770;9.186;2023-06-22T09:39:11;35.30;95.40
47921;DHT22;33686;48.770;9.186;2023-06-22T09:41:37;35.20;94.80
47921;DHT22;33686;48.770;9.186;2023-06-22T09:44:02;34.60;95.70
47921;DHT22;33686;48.770;9.186;2023-06-22T09:46:28;34.90;95.60
47921;DHT22;33686;48.770;9.186;2023-06-22T09:48:54;35.10;95.40
47921;DHT22;33686;48.770;9.186;2023-06-22T09:51:19;34.80;95.50
47921;DHT22;33686;48.770;9.186;2023-06-22T09:53:47;34.10;96.10
47921;DHT22;33686;48.770;9.186;2023-06-22T09:56:12;33.50;96.80
47921;DHT22;33686;48.770;9.186;2023-06-22T09:58:43;32.70;97.90
47921;DHT22;33686;48.770;9.186;2023-06-22T10:01:09;33.40;97.00
47921;DHT22;33686;48.770;9.186;2023-06-22T10:03:40;33.30;97.10
47921;DHT22;33686;48.770;9.186;2023-06-22T10:06:06;33.10;97.20
47921;DHT22;33686;48.770;9.186;2023-06-22T10:08:32;32.10;98.10
47921;DHT22;33686;48.770;9.186;2023-06-22T10:10:58;32.20;98.40
47921;DHT22;33686;48.770;9.186;2023-06-22T10:13:23;32.20;98.30
47921;DHT22;33686;48.770;9.186;2023-06-22T10:15:49;31.70;98.70
47921;DHT22;33686;48.770;9.186;2023-06-22T10:18:16;31.50;99.20
47921;DHT22;33686;48.770;9.186;2023-06-22T10:20:42;31.20;99.50
47921;DHT22;33686;48.770;9.186;2023-06-22T10:23:08;31.20;99.60
47921;DHT22;33686;48.770;9.186;2023-06-22T10:25:33;31.60;99.20
47921;DHT22;33686;48.770;9.186;2023-06-22T10:27:59;31.40;98.70
47921;DHT22;33686;48.770;9.186;2023-06-22T10:30:25;31.10;99.30
47921;DHT22;33686;48.770;9.186;2023-06-22T10:32:50;31.40;99.20
47921;DHT22;33686;48.770;9.186;2023-06-22T10:35:16;32.20;98.60
47921;DHT22;33686;48.770;9.186;2023-06-22T10:37:43;32.10;98.50
47921;DHT22;33686;48.770;9.186;2023-06-22T10:40:09;31.90;98.90
47921;DHT22;33686;48.770;9.186;2023-06-22T10:42:35;31.80;99.30
47921;DHT22;33686;48.770;9.186;2023-06-22T10:45:01;32.30;98.60
47921;DHT22;33686;48.770;9.186;2023-06-22T10:47:26;32.20;98.30
47921;DHT22;33686;48.770;9.186;2023-06-22T10:49:52;32.10;98.10
47921;DHT22;33686;48.770;9.186;2023-06-22T10:52:18;31.80;98.60
47921;DHT22;33686;48.770;9.186;2023-06-22T10:54:43;32.10;98.40
47921;DHT22;33686;48.770;9.186;2023-06-22T10:57:09;32.10;98.70
47921;DHT22;33686;48.770;9.186;2023-06-22T10:59:34;31.40;99.30
47921;DHT22;33686;48.770;9.186;2023-06-22T11:02:00;31.50;99.70
47921;DHT22;33686;48.770;9.186;2023-06-22T11:04:26;31.50;99.90
47921;DHT22;33686;48.770;9.186;2023-06-22T11:06:51;31.50;99.70
47921;DHT22;33686;48.770;9.186;2023-06-22T11:09:17;31.80;99.40
47921;DHT22;33686;48.770;9.186;2023-06-22T11:11:46;31.40;99.60
47921;DHT22;33686;48.770;9.186;2023-06-22T11:14:11;31.00;99.90
47921;DHT22;33686;48.770;9.186;2023-06-22T11:16:37;30.80;99.90
47921;DHT22;33686;48.770;9.186;2023-06-22T11:19:04;30.80;99.90
47921;DHT22;33686;48.770;9.186;2023-06-22T11:21:29;30.50;99.90
47921;DHT22;33686;48.770;9.186;2023-06-22T11:23:55;30.90;99.90
47921;DHT22;33686;48.770;9.186;2023-06-22T11:26:20;30.90;99.90
47921;DHT22;33686;48.770;9.186;2023-06-22T11:28:46;30.90;99.90
47921;DHT22;33686;48.770;9.186;2023-06-22T11:31:12;31.20;99.90
47921;DHT22;33686;48.770;9.186;2023-06-22T11:33:37;31.30;99.90
47921;DHT22;33686;48.770;9.186;2023-06-22T11:36:03;31.30;99.90
47921;DHT22;33686;48.770;9.186;2023-06-22T11:38:28;31.60;99.70
47921;DHT22;33686;48.770;9.186;2023-06-22T11:40:55;31.50;99.90
47921;DHT22;33686;48.770;9.186;2023-06-22T11:43:21;31.40;99.90
47921;DHT22;33686;48.770;9.186;2023-06-22T11:45:47;31.90;99.90
47921;DHT22;33686;48.770;9.186;2023-06-22T11:48:12;32.00;99.90
47921;DHT22;33686;48.770;9.186;2023-06-22T11:50:38;32.30;99.90
47921;DHT22;33686;48.770;9.186;2023-06-22T11:53:03;31.80;99.90
47921;DHT22;33686;48.770;9.186;2023-06-22T11:55:29;31.90;99.90
47921;DHT22;33686;48.770;9.186;2023-06-22T11:57:55;31.70;99.90
47921;DHT22;33686;48.770;9.186;2023-06-22T12:00:21;32.20;99.70
47921;DHT22;33686;48.770;9.186;2023-06-22T12:02:49;32.00;99.60
47921;DHT22;33686;48.770;9.186;2023-06-22T12:05:16;31.80;99.30
47921;DHT22;33686;48.770;9.186;2023-06-22T12:07:42;32.20;99.20
47921;DHT22;33686;48.770;9.186;2023-06-22T12:10:07;32.10;98.70
47921;DHT22;33686;48.770;9.186;2023-06-22T12:12:33;32.40;98.50
47921;DHT22;33686;48.770;9.186;2023-06-22T12:14:59;32.20;99.10
47921;DHT22;33686;48.770;9.186;2023-06-22T12:17:28;32.30;99.10
47921;DHT22;33686;48.770;9.186;2023-06-22T12:19:54;32.30;99.10
47921;DHT22;33686;48.770;9.186;2023-06-22T12:22:19;32.40;99.00
47921;DHT22;33686;48.770;9.186;2023-06-22T12:24:45;32.50;98.90
47921;DHT22;33686;48.770;9.186;2023-06-22T12:27:10;32.50;98.70
47921;DHT22;33686;48.770;9.186;2023-06-22T12:29:36;32.50;99.20
47921;DHT22;33686;48.770;9.186;2023-06-22T12:32:02;32.40;99.20
47921;DHT22;33686;48.770;9.186;2023-06-22T12:34:27;32.30;99.50
47921;DHT22;33686;48.770;9.186;2023-06-22T12:36:53;32.40;99.40
47921;DHT22;33686;48.770;9.186;2023-06-22T12:39:20;32.30;99.60
47921;DHT22;33686;48.770;9.186;2023-06-22T12:41:45;32.20;99.70
47921;DHT22;33686;48.770;9.186;2023-06-22T12:44:11;32.10;99.60
47921;DHT22;33686;48.770;9.186;2023-06-22T12:46:36;31.90;99.80
47921;DHT22;33686;48.770;9.186;2023-06-22T12:49:04;31.80;99.80
47921;DHT22;33686;48.770;9.186;2023-06-22T12:51:29;31.90;99.80
47921;DHT22;33686;48.770;9.186;2023-06-22T12:53:55;32.00;99.70
47921;DHT22;33686;48.770;9.186;2023-06-22T12:56:20;32.10;99.60
47921;DHT22;33686;48.770;9.186;2023-06-22T12:58:46;32.10;99.90
47921;DHT22;33686;48.770;9.186;2023-06-22T13:01:12;31.20;99.90
47921;DHT22;33686;48.770;9.186;2023-06-22T13:03:38;30.90;99.90
47921;DHT22;33686;48.770;9.186;2023-06-22T13:06:04;30.70;99.90
47921;DHT22;33686;48.770;9.186;2023-06-22T13:08:29;30.90;99.90
47921;DHT22;33686;48.770;9.186;2023-06-22T13:10:55;31.20;99.90
47921;DHT22;33686;48.770;9.186;2023-06-22T13:13:25;31.30;99.90
47921;DHT22;33686;48.770;9.186;2023-06-22T13:15:51;31.40;99.90
47921;DHT22;33686;48.770;9.186;2023-06-22T13:18:18;31.50;99.90
47921;DHT22;33686;48.770;9.186;2023-06-22T13:20:43;31.70;99.90
47921;DHT22;33686;48.770;9.186;2023-06-22T13:23:10;31.90;99.90
47921;DHT22;33686;48.770;9.186;2023-06-22T13:25:36;31.80;99.90
47921;DHT22;33686;48.770;9.186;2023-06-22T13:28:02;32.00;99.90
47921;DHT22;33686;48.770;9.186;2023-06-22T13:30:27;32.10;99.90
47921;DHT22;33686;48.770;9.186;2023-06-22T13:32:53;32.20;99.90
47921;DHT22;33686;48.770;9.186;2023-06-22T13:35:18;32.20;99.90
47921;DHT22;33686;48.770;9.186;2023-06-22T13:37:44;32.40;99.80
47921;DHT22;33686;48.770;9.186;2023-06-22T13:40:09;32.40;99.80
47921;DHT22;33686;48.770;9.186;2023-06-22T13:42:35;32.40;99.90
47921;DHT22;33686;48.770;9.186;2023-06-22T13:45:01;32.60;99.30
47921;DHT22;33686;48.770;9.186;2023-06-22T13:47:26;32.50;99.30
47921;DHT22;33686;48.770;9.186;2023-06-22T13:49:52;32.70;99.00
47921;DHT22;33686;48.770;9.186;2023-06-22T13:52:17;32.70;98.80
47921;DHT22;33686;48.770;9.186;2023-06-22T13:54:43;32.70;98.60
47921;DHT22;33686;48.770;9.186;2023-06-22T13:57:08;32.80;98.50
47921;DHT22;33686;48.770;9.186;2023-06-22T13:59:34;32.80;98.20
47921;DHT22;33686;48.770;9.186;2023-06-22T14:01:59;32.80;98.30
47921;DHT22;33686;48.770;9.186;2023-06-22T14:04:25;32.80;98.50
47921;DHT22;33686;48.770;9.186;2023-06-22T14:06:50;32.90;97.80
47921;DHT22;33686;48.770;9.186;2023-06-22T14:09:16;33.00;97.30
47921;DHT22;33686;48.770;9.186;2023-06-22T14:11:41;32.90;97.40
47921;DHT22;33686;48.770;9.186;2023-06-22T14:14:07;33.00;97.10
47921;DHT22;33686;48.770;9.186;2023-06-22T14:16:32;33.40;96.80
47921;DHT22;33686;48.770;9.186;2023-06-22T14:18:58;33.50;96.30
47921;DHT22;33686;48.770;9.186;2023-06-22T14:21:24;33.80;96.10
47921;DHT22;33686;48.770;9.186;2023-06-22T14:23:49;33.80;96.10
47921;DHT22;33686;48.770;9.186;2023-06-22T14:26:15;34.00;96.10
47921;DHT22;33686;48.770;9.186;2023-06-22T14:28:46;33.50;95.80
47921;DHT22;33686;48.770;9.186;2023-06-22T14:31:17;33.40;96.10
47921;DHT22;33686;48.770;9.186;2023-06-22T14:33:45;33.50;95.40
47921;DHT22;33686;48.770;9.186;2023-06-22T14:36:10;33.50;95.40
47921;DHT22;33686;48.770;9.186;2023-06-22T14:38:36;33.50;95.80
47921;DHT22;33686;48.770;9.186;2023-06-22T14:41:01;33.50;95.10
47921;DHT22;33686;48.770;9.186;2023-06-22T14:43:27;33.60;94.20
47921;DHT22;33686;48.770;9.186;2023-06-22T14:45:52;33.90;93.60
47921;DHT22;33686;48.770;9.186;2023-06-22T14:48:18;34.00;93.80
47921;DHT22;33686;48.770;9.186;2023-06-22T14:50:43;33.80;93.10
47921;DHT22;33686;48.770;9.186;2023-06-22T14:53:09;33.60;93.00
47921;DHT22;33686;48.770;9.186;2023-06-22T14:55:34;33.60;92.50
47921;DHT22;33686;48.770;9.186;2023-06-22T14:58:00;33.50;91.30
47921;DHT22;33686;48.770;9.186;2023-06-22T15:00:26;33.50;90.40
47921;DHT22;33686;48.770;9.186;2023-06-22T15:02:51;33.50;89.20
47921;DHT22;33686;48.770;9.186;2023-06-22T15:05:17;33.40;88.70
47921;DHT22;33686;48.770;9.186;2023-06-22T15:07:42;33.20;88.50
47921;DHT22;33686;48.770;9.186;2023-06-22T15:10:08;33.00;89.00
47921;DHT22;33686;48.770;9.186;2023-06-22T15:12:34;33.00;88.70
47921;DHT22;33686;48.770;9.186;2023-06-22T15:15:00;33.00;88.80
47921;DHT22;33686;48.770;9.186;2023-06-22T15:17:25;33.10;88.50
47921;DHT22;33686;48.770;9.186;2023-06-22T15:19:55;33.10;88.70
47921;DHT22;33686;48.770;9.186;2023-06-22T15:22:21;33.00;88.00
47921;DHT22;33686;48.770;9.186;2023-06-22T15:24:46;33.20;87.60
47921;DHT22;33686;48.770;9.186;2023-06-22T15:27:13;33.10;87.50
47921;DHT22;33686;48.770;9.186;2023-06-22T15:29:39;33.20;87.40
47921;DHT22;33686;48.770;9.186;2023-06-22T15:32:05;33.20;87.50
47921;DHT22;33686;48.770;9.186;2023-06-22T15:34:31;33.00;87.60
47921;DHT22;33686;48.770;9.186;2023-06-22T15:36:57;32.90;87.50
47921;DHT22;33686;48.770;9.186;2023-06-22T15:39:22;32.80;87.00
47921;DHT22;33686;48.770;9.186;2023-06-22T15:41:50;32.80;86.80
47921;DHT22;33686;48.770;9.186;2023-06-22T15:44:19;32.70;86.30
47921;DHT22;33686;48.770;9.186;2023-06-22T15:46:45;32.80;86.80
47921;DHT22;33686;48.770;9.186;2023-06-22T15:49:10;32.80;86.40
47921;DHT22;33686;48.770;9.186;2023-06-22T15:51:36;32.90;86.50
47921;DHT22;33686;48.770;9.186;2023-06-22T15:54:01;32.90;86.70
47921;DHT22;33686;48.770;9.186;2023-06-22T15:56:27;32.70;86.70
47921;DHT22;33686;48.770;9.186;2023-06-22T15:58:52;32.80;87.00
47921;DHT22;33686;48.770;9.186;2023-06-22T16:01:18;32.70;87.00
47921;DHT22;33686;48.770;9.186;2023-06-22T16:03:44;32.50;87.30
47921;DHT22;33686;48.770;9.186;2023-06-22T16:06:10;32.40;87.70
47921;DHT22;33686;48.770;9.186;2023-06-22T16:08:35;32.40;88.90
47921;DHT22;33686;48.770;9.186;2023-06-22T16:11:01;32.30;88.60
47921;DHT22;33686;48.770;9.186;2023-06-22T16:13:26;32.30;89.10
47921;DHT22;33686;48.770;9.186;2023-06-22T16:15:52;32.20;89.30
47921;DHT22;33686;48.770;9.186;2023-06-22T16:18:17;32.10;89.40
47921;DHT22;33686;48.770;9.186;2023-06-22T16:20:43;32.10;89.70
47921;DHT22;33686;48.770;9.186;2023-06-22T16:23:08;31.90;89.80
47921;DHT22;33686;48.770;9.186;2023-06-22T16:25:34;31.60;89.80
47921;DHT22;33686;48.770;9.186;2023-06-22T16:27:59;31.70;90.00
47921;DHT22;33686;48.770;9.186;2023-06-22T16:30:25;31.70;90.20
47921;DHT22;33686;48.770;9.186;2023-06-22T16:32:54;31.60;90.50
47921;DHT22;33686;48.770;9.186;2023-06-22T16:35:22;31.50;90.50
47921;DHT22;33686;48.770;9.186;2023-06-22T16:37:48;31.40;90.60
47921;DHT22;33686;48.770;9.186;2023-06-22T16:40:13;31.20;90.40
47921;DHT22;33686;48.770;9.186;2023-06-22T16:42:40;31.10;90.50
47921;DHT22;33686;48.770;9.186;2023-06-22T16:45:06;31.10;90.60
47921;DHT22;33686;48.770;9.186;2023-06-22T16:47:31;30.90;90.70
47921;DHT22;33686;48.770;9.186;2023-06-22T16:49:59;30.90;90.70
47921;DHT22;33686;48.770;9.186;2023-06-22T16:52:25;30.80;90.80
47921;DHT22;33686;48.770;9.186;2023-06-22T16:54:50;30.80;90.90
47921;DHT22;33686;48.770;9.186;2023-06-22T16:57:16;30.80;90.80
47921;DHT22;33686;48.770;9.186;2023-06-22T16:59:42;30.60;90.80
47921;DHT22;33686;48.770;9.186;2023-06-22T17:02:11;30.60;90.80
47921;DHT22;33686;48.770;9.186;2023-06-22T17:04:38;30.60;90.90
47921;DHT22;33686;48.770;9.186;2023-06-22T17:07:10;30.50;91.00
47921;DHT22;33686;48.770;9.186;2023-06-22T17:09:36;30.50;91.20
47921;DHT22;33686;48.770;9.186;2023-06-22T17:12:03;30.40;91.40
47921;DHT22;33686;48.770;9.186;2023-06-22T17:14:29;30.40;91.60
47921;DHT22;33686;48.770;9.186;2023-06-22T17:16:54;30.30;91.80
47921;DHT22;33686;48.770;9.186;2023-06-22T17:19:20;30.20;92.00
47921;DHT22;33686;48.770;9.186;2023-06-22T17:21:46;30.20;92.20
47921;DHT22;33686;48.770;9.186;2023-06-22T17:24:13;30.10;92.40
47921;DHT22;33686;48.770;9.186;2023-06-22T17:26:38;29.90;92.60
47921;DHT22;33686;48.770;9.186;2023-06-22T17:29:04;29.90;92.60
47921;DHT22;33686;48.770;9.186;2023-06-22T17:31:36;29.80;92.60
47921;DHT22;33686;48.770;9.186;2023-06-22T17:34:09;29.70;92.40
47921;DHT22;33686;48.770;9.186;2023-06-22T17:36:48;29.50;91.90
47921;DHT22;33686;48.770;9.186;2023-06-22T17:39:14;29.40;91.80
47921;DHT22;33686;48.770;9.186;2023-06-22T17:41:40;29.30;92.00
47921;DHT22;33686;48.770;9.186;2023-06-22T17:44:07;29.10;91.70
47921;DHT22;33686;48.770;9.186;2023-06-22T17:46:34;28.90;91.80
47921;DHT22;33686;48.770;9.186;2023-06-22T17:48:59;28.80;91.80
47921;DHT22;33686;48.770;9.186;2023-06-22T17:51:25;28.70;92.00
47921;DHT22;33686;48.770;9.186;2023-06-22T17:53:51;28.60;92.20
47921;DHT22;33686;48.770;9.186;2023-06-22T17:56:17;28.60;92.30
47921;DHT22;33686;48.770;9.186;2023-06-22T17:58:52;28.50;92.50
47921;DHT22;33686;48.770;9.186;2023-06-22T18:01:33;28.40;92.80
47921;DHT22;33686;48.770;9.186;2023-06-22T18:04:12;28.30;93.20
47921;DHT22;33686;48.770;9.186;2023-06-22T18:06:38;28.10;93.60
47921;DHT22;33686;48.770;9.186;2023-06-22T18:09:05;28.00;93.60
47921;DHT22;33686;48.770;9.186;2023-06-22T18:11:32;27.90;93.70
47921;DHT22;33686;48.770;9.186;2023-06-22T18:13:59;27.90;93.60
47921;DHT22;33686;48.770;9.186;2023-06-22T18:16:24;27.80;93.60
47921;DHT22;33686;48.770;9.186;2023-06-22T18:18:51;27.70;93.80
47921;DHT22;33686;48.770;9.186;2023-06-22T18:21:16;27.70;93.90
47921;DHT22;33686;48.770;9.186;2023-06-22T18:23:42;27.60;94.00
47921;DHT22;33686;48.770;9.186;2023-06-22T18:26:08;27.40;94.20
47921;DHT22;33686;48.770;9.186;2023-06-22T18:28:35;27.20;94.40
47921;DHT22;33686;48.770;9.186;2023-06-22T18:31:01;27.10;94.60
47921;DHT22;33686;48.770;9.186;2023-06-22T18:33:28;27.10;94.80
47921;DHT22;33686;48.770;9.186;2023-06-22T18:35:54;27.00;95.00
47921;DHT22;33686;48.770;9.186;2023-06-22T18:38:20;26.90;95.30
47921;DHT22;33686;48.770;9.186;2023-06-22T18:40:49;26.80;95.50
47921;DHT22;33686;48.770;9.186;2023-06-22T18:43:22;26.70;95.90
47921;DHT22;33686;48.770;9.186;2023-06-22T18:45:47;26.50;96.20
47921;DHT22;33686;48.770;9.186;2023-06-22T18:48:13;26.40;96.50
47921;DHT22;33686;48.770;9.186;2023-06-22T18:50:42;26.40;96.60
47921;DHT22;33686;48.770;9.186;2023-06-22T18:55:56;26.20;97.30
47921;DHT22;33686;48.770;9.186;2023-06-22T18:58:35;26.20;97.70
47921;DHT22;33686;48.770;9.186;2023-06-22T19:01:16;26.00;97.90
47921;DHT22;33686;48.770;9.186;2023-06-22T19:03:42;26.00;98.00
47921;DHT22;33686;48.770;9.186;2023-06-22T19:06:08;26.00;98.30
47921;DHT22;33686;48.770;9.186;2023-06-22T19:11:31;25.90;98.40
47921;DHT22;33686;48.770;9.186;2023-06-22T19:13:57;25.90;98.30
47921;DHT22;33686;48.770;9.186;2023-06-22T19:16:28;25.80;98.10
47921;DHT22;33686;48.770;9.186;2023-06-22T19:18:54;25.80;98.40
47921;DHT22;33686;48.770;9.186;2023-06-22T19:21:21;25.80;98.50
47921;DHT22;33686;48.770;9.186;2023-06-22T19:23:47;25.70;99.00
47921;DHT22;33686;48.770;9.186;2023-06-22T19:26:13;25.60;99.20
47921;DHT22;33686;48.770;9.186;2023-06-22T19:28:46;25.60;99.30
47921;DHT22;33686;48.770;9.186;2023-06-22T19:31:12;25.50;99.60
47921;DHT22;33686;48.770;9.186;2023-06-22T19:33:38;25.50;99.80
47921;DHT22;33686;48.770;9.186;2023-06-22T19:36:04;25.50;99.90
47921;DHT22;33686;48.770;9.186;2023-06-22T19:38:29;25.40;99.90
47921;DHT22;33686;48.770;9.186;2023-06-22T19:40:59;25.30;99.90
47921;DHT22;33686;48.770;9.186;2023-06-22T19:43:29;25.30;99.90
47921;DHT22;33686;48.770;9.186;2023-06-22T19:45:54;25.10;99.90